createdAt,value
2018-01-15T00:05:31.171Z,0
2018-01-15T00:15:31.237Z,0
2018-01-15T00:25:31.231Z,0
2018-01-15T00:35:31.347Z,0
2018-01-15T00:45:31.254Z,0
2018-01-15T00:55:31.333Z,0
2018-01-15T01:05:31.275Z,0
2018-01-15T01:15:31.322Z,0
2018-01-15T01:25:31.302Z,0
2018-01-15T01:35:31.219Z,0
2018-01-15T01:45:31.299Z,0
2018-01-15T01:55:31.238Z,0
2018-01-15T02:05:31.329Z,0
2018-01-15T02:15:31.369Z,0
2018-01-15T02:25:31.392Z,0
2018-01-15T02:35:31.334Z,0
2018-01-15T02:45:31.394Z,0
2018-01-15T02:55:31.334Z,0
2018-01-15T03:05:31.286Z,0
2018-01-15T03:15:31.354Z,0
2018-01-15T03:25:31.271Z,0
2018-01-15T03:35:31.388Z,0
2018-01-15T03:45:31.369Z,0
2018-01-15T03:55:31.453Z,0
2018-01-15T04:05:31.388Z,0
2018-01-15T04:15:31.440Z,0
2018-01-15T04:25:31.419Z,0
2018-01-15T04:35:31.479Z,0
2018-01-15T04:45:31.430Z,0
2018-01-15T04:55:31.371Z,0
2018-01-15T05:05:31.468Z,0
2018-01-15T05:15:31.510Z,0
2018-01-15T05:25:31.526Z,0
2018-01-15T05:35:31.517Z,0
2018-01-15T05:45:31.458Z,0
2018-01-15T05:55:31.478Z,0
2018-01-15T06:05:31.516Z,0
2018-01-15T06:15:31.452Z,0
2018-01-15T06:25:31.419Z,0
2018-01-15T06:35:31.514Z,0
2018-01-15T06:45:31.513Z,0
2018-01-15T06:55:31.552Z,0
2018-01-15T07:05:31.510Z,0
2018-01-15T07:15:31.623Z,0
2018-01-15T07:25:31.512Z,5
2018-01-15T07:35:31.866Z,5
2018-01-15T07:45:31.636Z,10
2018-01-15T07:55:31.707Z,15
2018-01-15T08:05:31.569Z,20
2018-01-15T08:15:31.629Z,20
2018-01-15T08:25:31.607Z,25
2018-01-15T08:35:31.792Z,30
2018-01-15T08:45:31.694Z,35
2018-01-15T08:55:31.630Z,35
2018-01-15T09:05:31.681Z,45
2018-01-15T09:15:31.640Z,40
2018-01-15T09:25:31.712Z,55
2018-01-15T09:35:31.607Z,75
2018-01-15T09:45:31.732Z,70
2018-01-15T09:55:31.690Z,70
2018-01-15T10:05:31.725Z,90
2018-01-15T10:15:31.691Z,90
2018-01-15T10:25:31.658Z,75
2018-01-15T10:35:31.691Z,70
2018-01-15T10:45:31.721Z,75
2018-01-15T10:55:32.200Z,65
2018-01-15T11:05:31.710Z,70
2018-01-15T11:15:31.869Z,85
2018-01-15T11:25:31.830Z,95
2018-01-15T11:35:32.362Z,80
2018-01-15T11:45:31.739Z,65
2018-01-15T11:55:31.752Z,80
2018-01-15T12:05:31.696Z,90
2018-01-15T12:15:31.775Z,65
2018-01-15T12:25:31.733Z,70
2018-01-15T12:35:31.930Z,65
2018-01-15T12:45:31.759Z,60
2018-01-15T12:55:31.862Z,40
2018-01-15T13:05:31.815Z,30
2018-01-15T13:15:31.852Z,40
2018-01-15T13:25:31.815Z,30
2018-01-15T13:35:31.874Z,35
2018-01-15T13:45:31.890Z,50
2018-01-15T13:55:32.102Z,35
2018-01-15T14:05:31.965Z,15
2018-01-15T14:15:32.044Z,10
2018-01-15T14:25:32.088Z,15
2018-01-15T14:35:31.973Z,15
2018-01-15T14:45:31.949Z,25
2018-01-15T14:55:31.941Z,35
2018-01-15T15:05:31.981Z,15
2018-01-15T15:15:31.918Z,5
2018-01-15T15:25:32.017Z,5
2018-01-15T15:35:31.967Z,0
2018-01-15T15:45:32.228Z,0
2018-01-15T15:55:32.010Z,0
2018-01-15T16:05:31.969Z,0
2018-01-15T16:15:32.039Z,0
2018-01-15T16:25:32.000Z,0
2018-01-15T16:35:32.120Z,0
2018-01-15T16:45:32.042Z,0
2018-01-15T16:55:32.070Z,0
2018-01-15T17:05:32.069Z,0
2018-01-15T17:15:32.652Z,0
2018-01-15T17:25:32.292Z,0
2018-01-15T17:35:32.080Z,0
2018-01-15T17:45:32.094Z,0
2018-01-15T17:55:32.049Z,0
2018-01-15T18:05:32.094Z,0
2018-01-15T18:15:32.123Z,0
2018-01-15T18:25:32.188Z,0
2018-01-15T18:35:32.126Z,0
2018-01-15T18:45:32.164Z,0
2018-01-15T18:55:32.123Z,0
2018-01-15T19:05:32.401Z,0
2018-01-15T19:15:32.363Z,0
2018-01-15T19:25:32.196Z,0
2018-01-15T19:35:32.366Z,0
2018-01-15T19:45:32.174Z,0
2018-01-15T19:55:33.147Z,0
2018-01-15T20:05:34.470Z,0
2018-01-15T20:15:32.274Z,0
2018-01-15T20:25:32.751Z,0
2018-01-15T20:35:32.302Z,0
2018-01-15T20:45:32.558Z,0
2018-01-15T20:55:32.236Z,0
2018-01-15T21:05:32.494Z,0
2018-01-15T21:15:32.226Z,0
2018-01-15T21:25:32.399Z,0
2018-01-15T21:35:32.813Z,0
2018-01-15T21:45:32.602Z,0
2018-01-15T21:55:32.219Z,0
2018-01-15T22:05:32.217Z,0
2018-01-15T22:15:32.321Z,0
2018-01-15T22:25:32.577Z,0
2018-01-15T22:35:32.377Z,0
2018-01-15T22:45:32.303Z,0
2018-01-15T22:55:32.386Z,0
2018-01-15T23:05:32.357Z,0
2018-01-15T23:15:32.428Z,0
2018-01-15T23:25:32.389Z,0
2018-01-15T23:35:32.414Z,0
2018-01-15T23:45:32.427Z,0
2018-01-15T23:55:32.396Z,0
